sensor_id;sensor_type;location;lat;lon;timestamp;pressure;altitude;pressure_sealevel;temperature;humidity
56292;BME280;54008;53.606;9.462;2022-08-19T00:01:50;101338.84;;;18.73;100.00
56292;BME280;54008;53.606;9.462;2022-08-19T00:04:18;101323.84;;;18.74;100.00
56292;BME280;54008;53.606;9.462;2022-08-19T00:06:47;101324.69;;;18.79;100.00
56292;BME280;54008;53.606;9.462;2022-08-19T00:09:14;101320.22;;;18.73;100.00
56292;BME280;54008;53.606;9.462;2022-08-19T00:11:42;101318.03;;;18.75;100.00
56292;BME280;54008;53.606;9.462;2022-08-19T00:14:09;101309.94;;;18.79;100.00
56292;BME280;54008;53.606;9.462;2022-08-19T00:16:37;101312.16;;;18.87;100.00
56292;BME280;54008;53.606;9.462;2022-08-19T00:19:03;101314.09;;;18.81;100.00
56292;BME280;54008;53.606;9.462;2022-08-19T00:21:29;101317.16;;;18.80;100.00
56292;BME280;54008;53.606;9.462;2022-08-19T00:23:55;101317.16;;;18.70;100.00
56292;BME280;54008;53.606;9.462;2022-08-19T00:26:23;101322.44;;;18.66;100.00
56292;BME280;54008;53.606;9.462;2022-08-19T00:28:49;101319.38;;;18.62;100.00
56292;BME280;54008;53.606;9.462;2022-08-19T00:31:14;101324.66;;;18.69;100.00
56292;BME280;54008;53.606;9.462;2022-08-19T00:33:41;101327.16;;;18.65;100.00
56292;BME280;54008;53.606;9.462;2022-08-19T00:36:07;101323.28;;;18.61;100.00
56292;BME280;54008;53.606;9.462;2022-08-19T00:38:35;101311.06;;;18.52;100.00
56292;BME280;54008;53.606;9.462;2022-08-19T00:41:00;101305.78;;;18.51;100.00
56292;BME280;54008;53.606;9.462;2022-08-19T00:43:27;101304.38;;;18.53;100.00
56292;BME280;54008;53.606;9.462;2022-08-19T00:45:53;101300.78;;;18.53;100.00
56292;BME280;54008;53.606;9.462;2022-08-19T00:48:18;101301.59;;;18.63;100.00
56292;BME280;54008;53.606;9.462;2022-08-19T00:50:45;101300.19;;;18.66;100.00
56292;BME280;54008;53.606;9.462;2022-08-19T00:53:12;101305.19;;;18.59;100.00
56292;BME280;54008;53.606;9.462;2022-08-19T00:55:41;101304.38;;;18.48;100.00
56292;BME280;54008;53.606;9.462;2022-08-19T00:58:10;101303.84;;;18.46;100.00
56292;BME280;54008;53.606;9.462;2022-08-19T01:00:38;101309.38;;;18.51;100.00
56292;BME280;54008;53.606;9.462;2022-08-19T01:03:11;101306.88;;;18.55;100.00
56292;BME280;54008;53.606;9.462;2022-08-19T01:05:39;101311.06;;;18.57;100.00
56292;BME280;54008;53.606;9.462;2022-08-19T01:08:06;101315.22;;;18.65;100.00
56292;BME280;54008;53.606;9.462;2022-08-19T01:10:36;101310.22;;;18.72;100.00
56292;BME280;54008;53.606;9.462;2022-08-19T01:13:03;101311.88;;;18.73;100.00
56292;BME280;54008;53.606;9.462;2022-08-19T01:15:31;101307.72;;;18.71;100.00
56292;BME280;54008;53.606;9.462;2022-08-19T01:18:01;101305.50;;;18.68;100.00
56292;BME280;54008;53.606;9.462;2022-08-19T01:20:30;101292.16;;;18.64;100.00
56292;BME280;54008;53.606;9.462;2022-08-19T01:22:57;101290.50;;;18.53;100.00
56292;BME280;54008;53.606;9.462;2022-08-19T01:25:30;101292.44;;;18.42;100.00
56292;BME280;54008;53.606;9.462;2022-08-19T01:27:56;101287.69;;;18.48;100.00
56292;BME280;54008;53.606;9.462;2022-08-19T01:30:27;101290.78;;;18.47;100.00
56292;BME280;54008;53.606;9.462;2022-08-19T01:32:54;101294.94;;;18.39;100.00
56292;BME280;54008;53.606;9.462;2022-08-19T01:35:20;101291.63;;;18.42;100.00
56292;BME280;54008;53.606;9.462;2022-08-19T01:37:55;101279.94;;;18.50;100.00
56292;BME280;54008;53.606;9.462;2022-08-19T01:40:24;101283.56;;;18.46;100.00
56292;BME280;54008;53.606;9.462;2022-08-19T01:42:51;101277.72;;;18.37;100.00
56292;BME280;54008;53.606;9.462;2022-08-19T01:45:19;101281.03;;;18.44;100.00
56292;BME280;54008;53.606;9.462;2022-08-19T01:47:45;101277.16;;;18.40;100.00
56292;BME280;54008;53.606;9.462;2022-08-19T01:50:12;101272.69;;;18.54;100.00
56292;BME280;54008;53.606;9.462;2022-08-19T01:52:40;101270.47;;;18.51;100.00
56292;BME280;54008;53.606;9.462;2022-08-19T01:55:08;101265.50;;;18.43;100.00
56292;BME280;54008;53.606;9.462;2022-08-19T01:57:34;101262.72;;;18.38;100.00
56292;BME280;54008;53.606;9.462;2022-08-19T02:00:00;101265.50;;;18.38;100.00
56292;BME280;54008;53.606;9.462;2022-08-19T02:02:30;101271.88;;;18.38;100.00
56292;BME280;54008;53.606;9.462;2022-08-19T02:04:56;101266.31;;;18.33;100.00
56292;BME280;54008;53.606;9.462;2022-08-19T02:07:21;101270.50;;;18.41;100.00
56292;BME280;54008;53.606;9.462;2022-08-19T02:09:47;101270.50;;;18.46;100.00
56292;BME280;54008;53.606;9.462;2022-08-19T02:12:13;101269.94;;;18.29;100.00
56292;BME280;54008;53.606;9.462;2022-08-19T02:14:38;101273.28;;;18.15;100.00
56292;BME280;54008;53.606;9.462;2022-08-19T02:17:04;101273.56;;;18.19;100.00
56292;BME280;54008;53.606;9.462;2022-08-19T02:19:29;101268.28;;;18.28;100.00
56292;BME280;54008;53.606;9.462;2022-08-19T02:21:56;101260.53;;;18.30;100.00
56292;BME280;54008;53.606;9.462;2022-08-19T02:24:22;101248.00;;;18.27;100.00
56292;BME280;54008;53.606;9.462;2022-08-19T02:26:47;101253.00;;;18.20;100.00
56292;BME280;54008;53.606;9.462;2022-08-19T02:29:12;101260.50;;;18.20;100.00
56292;BME280;54008;53.606;9.462;2022-08-19T02:31:37;101249.66;;;18.28;100.00
56292;BME280;54008;53.606;9.462;2022-08-19T02:34:03;101254.13;;;18.34;100.00
56292;BME280;54008;53.606;9.462;2022-08-19T02:36:28;101242.44;;;18.27;100.00
56292;BME280;54008;53.606;9.462;2022-08-19T02:38:54;101239.13;;;18.15;100.00
56292;BME280;54008;53.606;9.462;2022-08-19T02:41:22;101236.34;;;18.10;100.00
56292;BME280;54008;53.606;9.462;2022-08-19T02:43:48;101248.28;;;18.00;100.00
56292;BME280;54008;53.606;9.462;2022-08-19T02:46:26;101236.63;;;18.13;100.00
56292;BME280;54008;53.606;9.462;2022-08-19T02:48:54;101246.31;;;18.11;100.00
56292;BME280;54008;53.606;9.462;2022-08-19T02:51:23;101243.81;;;18.14;100.00
56292;BME280;54008;53.606;9.462;2022-08-19T02:53:49;101236.59;;;18.03;100.00
56292;BME280;54008;53.606;9.462;2022-08-19T02:56:14;101236.03;;;17.96;100.00
56292;BME280;54008;53.606;9.462;2022-08-19T02:58:40;101243.56;;;18.01;100.00
56292;BME280;54008;53.606;9.462;2022-08-19T03:01:06;101241.91;;;18.10;100.00
56292;BME280;54008;53.606;9.462;2022-08-19T03:03:32;101240.50;;;17.97;100.00
56292;BME280;54008;53.606;9.462;2022-08-19T03:06:09;101240.78;;;17.90;100.00
56292;BME280;54008;53.606;9.462;2022-08-19T03:08:35;101246.34;;;18.06;100.00
56292;BME280;54008;53.606;9.462;2022-08-19T03:11:01;101241.88;;;18.00;100.00
56292;BME280;54008;53.606;9.462;2022-08-19T03:13:27;101233.84;;;18.08;100.00
56292;BME280;54008;53.606;9.462;2022-08-19T03:15:53;101229.41;;;18.02;100.00
56292;BME280;54008;53.606;9.462;2022-08-19T03:18:18;101234.41;;;18.05;100.00
56292;BME280;54008;53.606;9.462;2022-08-19T03:20:48;101233.84;;;18.08;100.00
56292;BME280;54008;53.606;9.462;2022-08-19T03:23:16;101239.13;;;18.05;100.00
56292;BME280;54008;53.606;9.462;2022-08-19T03:25:43;101237.19;;;18.05;100.00
56292;BME280;54008;53.606;9.462;2022-08-19T03:28:14;101249.94;;;17.91;100.00
56292;BME280;54008;53.606;9.462;2022-08-19T03:30:40;101247.72;;;17.93;100.00
56292;BME280;54008;53.606;9.462;2022-08-19T03:33:08;101245.22;;;18.02;100.00
56292;BME280;54008;53.606;9.462;2022-08-19T03:35:34;101234.69;;;18.04;100.00
56292;BME280;54008;53.606;9.462;2022-08-19T03:38:02;101242.16;;;17.98;100.00
56292;BME280;54008;53.606;9.462;2022-08-19T03:40:28;101242.47;;;17.97;100.00
56292;BME280;54008;53.606;9.462;2022-08-19T03:42:55;101253.81;;;17.90;100.00
56292;BME280;54008;53.606;9.462;2022-08-19T03:45:21;101266.03;;;17.94;100.00
56292;BME280;54008;53.606;9.462;2022-08-19T03:47:46;101269.09;;;17.98;100.00
56292;BME280;54008;53.606;9.462;2022-08-19T03:50:11;101274.94;;;18.01;100.00
56292;BME280;54008;53.606;9.462;2022-08-19T03:52:37;101270.75;;;17.99;100.00
56292;BME280;54008;53.606;9.462;2022-08-19T03:55:03;101276.28;;;17.83;100.00
56292;BME280;54008;53.606;9.462;2022-08-19T03:57:28;101274.09;;;17.96;100.00
56292;BME280;54008;53.606;9.462;2022-08-19T03:59:53;101278.53;;;17.86;100.00
56292;BME280;54008;53.606;9.462;2022-08-19T04:02:19;101282.44;;;18.01;100.00
56292;BME280;54008;53.606;9.462;2022-08-19T04:04:44;101278.78;;;17.85;100.00
56292;BME280;54008;53.606;9.462;2022-08-19T04:07:11;101282.97;;;17.87;100.00
56292;BME280;54008;53.606;9.462;2022-08-19T04:09:38;101288.22;;;17.84;100.00
56292;BME280;54008;53.606;9.462;2022-08-19T04:12:04;101284.34;;;17.95;100.00
56292;BME280;54008;53.606;9.462;2022-08-19T04:14:31;101286.31;;;18.00;100.00
56292;BME280;54008;53.606;9.462;2022-08-19T04:16:58;101286.03;;;17.86;100.00
56292;BME280;54008;53.606;9.462;2022-08-19T04:19:24;101302.69;;;17.86;100.00
56292;BME280;54008;53.606;9.462;2022-08-19T04:21:51;101292.13;;;17.88;100.00
56292;BME280;54008;53.606;9.462;2022-08-19T04:24:18;101296.00;;;17.92;100.00
56292;BME280;54008;53.606;9.462;2022-08-19T04:26:44;101298.25;;;17.95;100.00
56292;BME280;54008;53.606;9.462;2022-08-19T04:29:13;101293.50;;;17.96;100.00
56292;BME280;54008;53.606;9.462;2022-08-19T04:31:40;101289.34;;;17.88;100.00
56292;BME280;54008;53.606;9.462;2022-08-19T04:34:08;101298.50;;;17.83;100.00
56292;BME280;54008;53.606;9.462;2022-08-19T04:36:37;101293.22;;;17.87;100.00
56292;BME280;54008;53.606;9.462;2022-08-19T04:39:09;101294.56;;;17.74;100.00
56292;BME280;54008;53.606;9.462;2022-08-19T04:41:35;101284.34;;;17.85;100.00
56292;BME280;54008;53.606;9.462;2022-08-19T04:44:19;101285.72;;;17.82;100.00
56292;BME280;54008;53.606;9.462;2022-08-19T04:46:45;101282.38;;;17.80;100.00
56292;BME280;54008;53.606;9.462;2022-08-19T04:49:13;101287.66;;;17.77;100.00
56292;BME280;54008;53.606;9.462;2022-08-19T04:51:40;101287.41;;;17.83;100.00
56292;BME280;54008;53.606;9.462;2022-08-19T04:54:07;101293.78;;;17.84;100.00
56292;BME280;54008;53.606;9.462;2022-08-19T04:56:32;101292.41;;;17.86;100.00
56292;BME280;54008;53.606;9.462;2022-08-19T04:58:57;101299.34;;;17.89;100.00
56292;BME280;54008;53.606;9.462;2022-08-19T05:01:25;101307.13;;;18.02;100.00
56292;BME280;54008;53.606;9.462;2022-08-19T05:03:51;101304.06;;;17.93;100.00
56292;BME280;54008;53.606;9.462;2022-08-19T05:06:19;101307.97;;;18.03;100.00
56292;BME280;54008;53.606;9.462;2022-08-19T05:08:45;101303.25;;;18.03;100.00
56292;BME280;54008;53.606;9.462;2022-08-19T05:11:15;101311.31;;;18.10;100.00
56292;BME280;54008;53.606;9.462;2022-08-19T05:13:42;101303.78;;;17.95;100.00
56292;BME280;54008;53.606;9.462;2022-08-19T05:16:09;101311.84;;;17.86;100.00
56292;BME280;54008;53.606;9.462;2022-08-19T05:18:34;101308.78;;;17.88;100.00
56292;BME280;54008;53.606;9.462;2022-08-19T05:21:19;101317.97;;;17.99;100.00
56292;BME280;54008;53.606;9.462;2022-08-19T05:24:04;101318.78;;;17.99;100.00
56292;BME280;54008;53.606;9.462;2022-08-19T05:26:34;101327.69;;;18.01;100.00
56292;BME280;54008;53.606;9.462;2022-08-19T05:29:00;101329.59;;;17.96;100.00
56292;BME280;54008;53.606;9.462;2022-08-19T05:31:25;101318.78;;;17.99;100.00
56292;BME280;54008;53.606;9.462;2022-08-19T05:33:51;101334.34;;;18.05;100.00
56292;BME280;54008;53.606;9.462;2022-08-19T05:36:16;101329.91;;;18.14;100.00
56292;BME280;54008;53.606;9.462;2022-08-19T05:38:41;101327.69;;;18.01;100.00
56292;BME280;54008;53.606;9.462;2022-08-19T05:41:08;101318.50;;;17.90;100.00
56292;BME280;54008;53.606;9.462;2022-08-19T05:43:34;101315.47;;;17.97;100.00
56292;BME280;54008;53.606;9.462;2022-08-19T05:45:59;101315.47;;;17.97;100.00
56292;BME280;54008;53.606;9.462;2022-08-19T05:48:24;101309.63;;;17.99;100.00
56292;BME280;54008;53.606;9.462;2022-08-19T05:50:50;101324.88;;;17.96;100.00
56292;BME280;54008;53.606;9.462;2022-08-19T05:53:16;101319.34;;;18.01;100.00
56292;BME280;54008;53.606;9.462;2022-08-19T05:55:42;101317.66;;;17.95;100.00
56292;BME280;54008;53.606;9.462;2022-08-19T05:58:07;101317.59;;;17.75;100.00
56292;BME280;54008;53.606;9.462;2022-08-19T06:00:33;101328.19;;;17.88;100.00
56292;BME280;54008;53.606;9.462;2022-08-19T06:02:59;101327.69;;;18.01;100.00
56292;BME280;54008;53.606;9.462;2022-08-19T06:05:29;101322.97;;;18.02;100.00
56292;BME280;54008;53.606;9.462;2022-08-19T06:07:54;101325.44;;;18.03;100.00
56292;BME280;54008;53.606;9.462;2022-08-19T06:10:19;101319.94;;;18.08;100.00
56292;BME280;54008;53.606;9.462;2022-08-19T06:12:47;101315.47;;;18.07;100.00
56292;BME280;54008;53.606;9.462;2022-08-19T06:15:13;101319.91;;;18.13;100.00
56292;BME280;54008;53.606;9.462;2022-08-19T06:17:39;101306.31;;;18.02;100.00
56292;BME280;54008;53.606;9.462;2022-08-19T06:20:07;101314.09;;;18.10;100.00
56292;BME280;54008;53.606;9.462;2022-08-19T06:22:40;101305.47;;;18.01;100.00
56292;BME280;54008;53.606;9.462;2022-08-19T06:25:06;101312.13;;;18.05;100.00
56292;BME280;54008;53.606;9.462;2022-08-19T06:27:31;101316.84;;;17.95;100.00
56292;BME280;54008;53.606;9.462;2022-08-19T06:29:57;101331.81;;;17.83;100.00
56292;BME280;54008;53.606;9.462;2022-08-19T06:32:23;101329.88;;;17.89;100.00
56292;BME280;54008;53.606;9.462;2022-08-19T06:34:48;101324.84;;;17.76;100.00
56292;BME280;54008;53.606;9.462;2022-08-19T06:37:13;101319.59;;;17.79;100.00
56292;BME280;54008;53.606;9.462;2022-08-19T06:39:40;101321.84;;;17.98;100.00
56292;BME280;54008;53.606;9.462;2022-08-19T06:42:06;101317.69;;;18.10;100.00
56292;BME280;54008;53.606;9.462;2022-08-19T06:44:35;101319.34;;;18.06;100.00
56292;BME280;54008;53.606;9.462;2022-08-19T06:47:06;101322.69;;;18.03;100.00
56292;BME280;54008;53.606;9.462;2022-08-19T06:49:32;101324.06;;;17.96;100.00
56292;BME280;54008;53.606;9.462;2022-08-19T06:51:58;101333.22;;;17.96;100.00
56292;BME280;54008;53.606;9.462;2022-08-19T06:54:23;101329.06;;;17.93;100.00
56292;BME280;54008;53.606;9.462;2022-08-19T06:56:49;101338.47;;;17.87;100.00
56292;BME280;54008;53.606;9.462;2022-08-19T06:59:20;101337.69;;;17.97;100.00
56292;BME280;54008;53.606;9.462;2022-08-19T07:01:51;101337.69;;;17.97;100.00
56292;BME280;54008;53.606;9.462;2022-08-19T07:04:20;101343.22;;;17.97;100.00
56292;BME280;54008;53.606;9.462;2022-08-19T07:06:46;101342.06;;;17.83;100.00
56292;BME280;54008;53.606;9.462;2022-08-19T07:09:14;101346.22;;;17.80;100.00
56292;BME280;54008;53.606;9.462;2022-08-19T07:11:48;101349.56;;;17.87;100.00
56292;BME280;54008;53.606;9.462;2022-08-19T07:14:16;101349.88;;;17.96;100.00
56292;BME280;54008;53.606;9.462;2022-08-19T07:16:43;101348.66;;;17.72;100.00
56292;BME280;54008;53.606;9.462;2022-08-19T07:19:10;101357.25;;;17.65;100.00
56292;BME280;54008;53.606;9.462;2022-08-19T07:21:36;101355.88;;;17.73;100.00
56292;BME280;54008;53.606;9.462;2022-08-19T07:24:01;101356.78;;;17.78;100.00
56292;BME280;54008;53.606;9.462;2022-08-19T07:26:32;101353.66;;;17.69;100.00
56292;BME280;54008;53.606;9.462;2022-08-19T07:28:58;101366.69;;;17.64;100.00
56292;BME280;54008;53.606;9.462;2022-08-19T07:31:26;101363.63;;;17.65;100.00
56292;BME280;54008;53.606;9.462;2022-08-19T07:33:53;101373.66;;;17.72;100.00
56292;BME280;54008;53.606;9.462;2022-08-19T07:36:23;101376.13;;;17.73;100.00
56292;BME280;54008;53.606;9.462;2022-08-19T07:38:50;101384.22;;;17.75;100.00
56292;BME280;54008;53.606;9.462;2022-08-19T07:41:20;101382.50;;;17.74;100.00
56292;BME280;54008;53.606;9.462;2022-08-19T07:43:46;101392.78;;;17.73;100.00
56292;BME280;54008;53.606;9.462;2022-08-19T07:46:12;101398.94;;;17.75;100.00
56292;BME280;54008;53.606;9.462;2022-08-19T07:48:40;101387.03;;;17.80;100.00
56292;BME280;54008;53.606;9.462;2022-08-19T07:51:06;101405.34;;;17.81;100.00
56292;BME280;54008;53.606;9.462;2022-08-19T07:53:33;101398.75;;;17.97;100.00
56292;BME280;54008;53.606;9.462;2022-08-19T07:55:59;101394.84;;;17.98;100.00
56292;BME280;54008;53.606;9.462;2022-08-19T07:58:30;101388.72;;;17.96;100.00
56292;BME280;54008;53.606;9.462;2022-08-19T08:00:56;101387.44;;;18.19;100.00
56292;BME280;54008;53.606;9.462;2022-08-19T08:03:22;101395.19;;;18.22;100.00
56292;BME280;54008;53.606;9.462;2022-08-19T08:06:12;101399.09;;;18.31;100.00
56292;BME280;54008;53.606;9.462;2022-08-19T08:08:56;101403.53;;;18.32;100.00
56292;BME280;54008;53.606;9.462;2022-08-19T08:11:42;101404.41;;;18.38;100.00
56292;BME280;54008;53.606;9.462;2022-08-19T08:14:15;101399.97;;;18.52;100.00
56292;BME280;54008;53.606;9.462;2022-08-19T08:16:41;101405.25;;;18.49;100.00
56292;BME280;54008;53.606;9.462;2022-08-19T08:19:08;101404.13;;;18.55;100.00
56292;BME280;54008;53.606;9.462;2022-08-19T08:21:34;101419.16;;;18.69;100.00
56292;BME280;54008;53.606;9.462;2022-08-19T08:23:59;101406.09;;;18.70;100.00
56292;BME280;54008;53.606;9.462;2022-08-19T08:26:25;101397.22;;;18.73;100.00
56292;BME280;54008;53.606;9.462;2022-08-19T08:28:51;101407.75;;;18.45;100.00
56292;BME280;54008;53.606;9.462;2022-08-19T08:31:18;101409.09;;;18.27;100.00
56292;BME280;54008;53.606;9.462;2022-08-19T08:33:44;101414.97;;;18.46;100.00
56292;BME280;54008;53.606;9.462;2022-08-19T08:36:11;101416.34;;;18.54;100.00
56292;BME280;54008;53.606;9.462;2022-08-19T08:38:40;101414.41;;;18.54;100.00
56292;BME280;54008;53.606;9.462;2022-08-19T08:41:25;101411.06;;;18.62;100.00
56292;BME280;54008;53.606;9.462;2022-08-19T08:43:54;101419.47;;;18.73;100.00
56292;BME280;54008;53.606;9.462;2022-08-19T08:46:39;101419.47;;;18.98;100.00
56292;BME280;54008;53.606;9.462;2022-08-19T08:49:28;101409.44;;;19.02;100.00
56292;BME280;54008;53.606;9.462;2022-08-19T08:52:04;101410.53;;;19.17;100.00
56292;BME280;54008;53.606;9.462;2022-08-19T08:54:37;101396.06;;;19.25;100.00
56292;BME280;54008;53.606;9.462;2022-08-19T08:57:09;101401.59;;;19.40;100.00
56292;BME280;54008;53.606;9.462;2022-08-19T08:59:39;101398.81;;;19.40;100.00
56292;BME280;54008;53.606;9.462;2022-08-19T09:02:07;101390.44;;;19.45;100.00
56292;BME280;54008;53.606;9.462;2022-08-19T09:04:35;101400.47;;;19.36;100.00
56292;BME280;54008;53.606;9.462;2022-08-19T09:07:25;101399.38;;;19.32;100.00
56292;BME280;54008;53.606;9.462;2022-08-19T09:09:49;101407.75;;;19.22;100.00
56292;BME280;54008;53.606;9.462;2022-08-19T09:12:39;101399.84;;;19.59;100.00
56292;BME280;54008;53.606;9.462;2022-08-19T09:15:12;101397.06;;;19.70;100.00
56292;BME280;54008;53.606;9.462;2022-08-19T09:17:39;101384.56;;;19.62;100.00
56292;BME280;54008;53.606;9.462;2022-08-19T09:22:37;101394.34;;;19.44;100.00
56292;BME280;54008;53.606;9.462;2022-08-19T09:25:03;101396.00;;;19.45;100.00
56292;BME280;54008;53.606;9.462;2022-08-19T09:27:30;101402.66;;;19.54;100.00
56292;BME280;54008;53.606;9.462;2022-08-19T09:29:55;101390.94;;;19.68;100.00
56292;BME280;54008;53.606;9.462;2022-08-19T09:32:22;101387.34;;;19.52;100.00
56292;BME280;54008;53.606;9.462;2022-08-19T09:34:47;101391.22;;;19.61;100.00
56292;BME280;54008;53.606;9.462;2022-08-19T09:37:13;101387.00;;;19.79;100.00
56292;BME280;54008;53.606;9.462;2022-08-19T09:39:39;101379.16;;;19.91;100.00
56292;BME280;54008;53.606;9.462;2022-08-19T09:42:06;101380.41;;;20.09;100.00
56292;BME280;54008;53.606;9.462;2022-08-19T09:44:36;101374.53;;;20.21;100.00
56292;BME280;54008;53.606;9.462;2022-08-19T09:47:02;101377.25;;;20.26;100.00
56292;BME280;54008;53.606;9.462;2022-08-19T09:49:28;101380.16;;;20.10;100.00
56292;BME280;54008;53.606;9.462;2022-08-19T09:51:53;101376.22;;;20.17;100.00
56292;BME280;54008;53.606;9.462;2022-08-19T09:54:21;101369.84;;;20.11;100.00
56292;BME280;54008;53.606;9.462;2022-08-19T09:56:46;101376.38;;;20.36;100.00
56292;BME280;54008;53.606;9.462;2022-08-19T09:59:12;101381.19;;;20.25;100.00
56292;BME280;54008;53.606;9.462;2022-08-19T10:01:37;101390.47;;;20.10;100.00
56292;BME280;54008;53.606;9.462;2022-08-19T10:04:03;101391.06;;;20.02;100.00
56292;BME280;54008;53.606;9.462;2022-08-19T10:06:33;101392.72;;;20.03;100.00
56292;BME280;54008;53.606;9.462;2022-08-19T10:08:59;101384.03;;;20.15;100.00
56292;BME280;54008;53.606;9.462;2022-08-19T10:11:25;101386.19;;;20.28;100.00
56292;BME280;54008;53.606;9.462;2022-08-19T10:13:51;101383.13;;;20.24;100.00
56292;BME280;54008;53.606;9.462;2022-08-19T10:16:20;101385.84;;;20.34;100.00
56292;BME280;54008;53.606;9.462;2022-08-19T10:18:47;101386.25;;;20.18;100.00
56292;BME280;54008;53.606;9.462;2022-08-19T10:21:15;101396.22;;;20.24;100.00
56292;BME280;54008;53.606;9.462;2022-08-19T10:23:44;101383.88;;;20.35;100.00
56292;BME280;54008;53.606;9.462;2022-08-19T10:26:12;101382.97;;;20.50;100.00
56292;BME280;54008;53.606;9.462;2022-08-19T10:28:38;101386.31;;;20.52;100.00
56292;BME280;54008;53.606;9.462;2022-08-19T10:31:09;101383.53;;;20.47;100.00
56292;BME280;54008;53.606;9.462;2022-08-19T10:33:36;101368.69;;;20.62;100.00
56292;BME280;54008;53.606;9.462;2022-08-19T10:36:11;101374.88;;;20.48;100.00
56292;BME280;54008;53.606;9.462;2022-08-19T10:38:38;101365.91;;;20.56;100.00
56292;BME280;54008;53.606;9.462;2022-08-19T10:41:13;101361.09;;;20.67;100.00
56292;BME280;54008;53.606;9.462;2022-08-19T10:43:40;101371.41;;;20.67;100.00
56292;BME280;54008;53.606;9.462;2022-08-19T10:46:08;101361.88;;;20.73;100.00
56292;BME280;54008;53.606;9.462;2022-08-19T10:48:34;101364.56;;;20.83;100.00
56292;BME280;54008;53.606;9.462;2022-08-19T10:51:00;101365.28;;;20.65;100.00
56292;BME280;54008;53.606;9.462;2022-08-19T10:53:45;101360.66;;;20.84;100.00
56292;BME280;54008;53.606;9.462;2022-08-19T10:56:12;101361.84;;;20.78;100.00
56292;BME280;54008;53.606;9.462;2022-08-19T10:58:56;101358.22;;;20.77;100.00
56292;BME280;54008;53.606;9.462;2022-08-19T11:01:23;101348.41;;;20.80;100.00
56292;BME280;54008;53.606;9.462;2022-08-19T11:03:49;101358.25;;;21.01;100.00
56292;BME280;54008;53.606;9.462;2022-08-19T11:06:15;101359.28;;;21.11;100.00
56292;BME280;54008;53.606;9.462;2022-08-19T11:08:41;101359.94;;;21.02;100.00
56292;BME280;54008;53.606;9.462;2022-08-19T11:11:07;101358.72;;;21.14;100.00
56292;BME280;54008;53.606;9.462;2022-08-19T11:13:38;101358.81;;;21.03;100.00
56292;BME280;54008;53.606;9.462;2022-08-19T11:16:08;101356.28;;;21.02;100.00
56292;BME280;54008;53.606;9.462;2022-08-19T11:18:41;101351.34;;;21.23;100.00
56292;BME280;54008;53.606;9.462;2022-08-19T11:21:29;101349.78;;;21.12;100.00
56292;BME280;54008;53.606;9.462;2022-08-19T11:23:59;101360.38;;;21.10;100.00
56292;BME280;54008;53.606;9.462;2022-08-19T11:26:26;101357.25;;;21.16;100.00
56292;BME280;54008;53.606;9.462;2022-08-19T11:28:52;101357.72;;;20.99;100.00
56292;BME280;54008;53.606;9.462;2022-08-19T11:31:21;101354.63;;;21.01;100.00
56292;BME280;54008;53.606;9.462;2022-08-19T11:33:47;101363.47;;;20.84;100.00
56292;BME280;54008;53.606;9.462;2022-08-19T11:36:16;101359.19;;;20.92;100.00
56292;BME280;54008;53.606;9.462;2022-08-19T11:38:41;101354.34;;;21.02;100.00
56292;BME280;54008;53.606;9.462;2022-08-19T11:41:07;101347.53;;;21.14;100.00
56292;BME280;54008;53.606;9.462;2022-08-19T11:43:34;101352.47;;;21.22;100.00
56292;BME280;54008;53.606;9.462;2022-08-19T11:45:59;101366.41;;;21.22;100.00
56292;BME280;54008;53.606;9.462;2022-08-19T11:48:24;101360.16;;;21.35;100.00
56292;BME280;54008;53.606;9.462;2022-08-19T11:50:51;101357.69;;;21.28;100.00
56292;BME280;54008;53.606;9.462;2022-08-19T11:53:18;101358.28;;;21.25;100.00
56292;BME280;54008;53.606;9.462;2022-08-19T11:55:46;101355.13;;;21.32;100.00
56292;BME280;54008;53.606;9.462;2022-08-19T11:58:12;101357.00;;;21.13;100.00
56292;BME280;54008;53.606;9.462;2022-08-19T12:00:39;101351.44;;;21.13;100.00
56292;BME280;54008;53.606;9.462;2022-08-19T12:03:04;101354.22;;;21.13;100.00
56292;BME280;54008;53.606;9.462;2022-08-19T12:05:29;101345.84;;;21.13;100.00
56292;BME280;54008;53.606;9.462;2022-08-19T12:07:55;101346.66;;;21.18;100.00
56292;BME280;54008;53.606;9.462;2022-08-19T12:10:21;101347.13;;;21.25;100.00
56292;BME280;54008;53.606;9.462;2022-08-19T12:12:47;101350.84;;;21.16;100.00
56292;BME280;54008;53.606;9.462;2022-08-19T12:15:13;101348.63;;;21.18;100.00
56292;BME280;54008;53.606;9.462;2022-08-19T12:17:40;101354.88;;;21.28;100.00
56292;BME280;54008;53.606;9.462;2022-08-19T12:20:08;101353.13;;;21.14;100.00
56292;BME280;54008;53.606;9.462;2022-08-19T12:22:35;101359.16;;;21.21;100.00
56292;BME280;54008;53.606;9.462;2022-08-19T12:25:00;101357.09;;;21.31;100.00
56292;BME280;54008;53.606;9.462;2022-08-19T12:27:26;101355.13;;;21.32;100.00
56292;BME280;54008;53.606;9.462;2022-08-19T12:29:54;101358.66;;;21.43;100.00
56292;BME280;54008;53.606;9.462;2022-08-19T12:32:19;101353.63;;;21.45;100.00
56292;BME280;54008;53.606;9.462;2022-08-19T12:34:44;101338.06;;;21.39;100.00
56292;BME280;54008;53.606;9.462;2022-08-19T12:37:12;101347.94;;;21.55;100.00
56292;BME280;54008;53.606;9.462;2022-08-19T12:39:40;101344.22;;;21.60;100.00
56292;BME280;54008;53.606;9.462;2022-08-19T12:42:07;101339.00;;;21.53;100.00
56292;BME280;54008;53.606;9.462;2022-08-19T12:44:36;101335.19;;;21.68;100.00
56292;BME280;54008;53.606;9.462;2022-08-19T12:47:01;101333.28;;;21.63;100.00